createdAt,value
2018-11-07T00:00:58.620Z,0.00
2018-11-07T00:02:51.569Z,0.00
2018-11-07T00:03:51.457Z,0.00
2018-11-07T00:05:43.541Z,0.00
2018-11-07T00:06:43.267Z,0.00
2018-11-07T00:08:35.163Z,0.00
2018-11-07T00:09:35.062Z,0.00
2018-11-07T00:11:26.957Z,0.00
2018-11-07T00:12:26.833Z,0.00
2018-11-07T00:14:19.697Z,0.00
2018-11-07T00:15:19.614Z,0.00
2018-11-07T00:17:11.539Z,0.00
2018-11-07T00:18:11.438Z,0.00
2018-11-07T00:20:03.334Z,0.00
2018-11-07T00:21:03.148Z,0.00
2018-11-07T00:22:55.189Z,0.00
2018-11-07T00:23:55.168Z,0.00
2018-11-07T00:25:47.095Z,0.00
2018-11-07T00:26:46.825Z,0.00
2018-11-07T00:28:38.687Z,0.00
2018-11-07T00:29:38.597Z,0.00
2018-11-07T00:31:30.645Z,0.00
2018-11-07T00:32:30.469Z,0.00
2018-11-07T00:34:22.249Z,0.00
2018-11-07T00:35:22.214Z,0.00
2018-11-07T00:37:15.190Z,0.00
2018-11-07T00:38:15.005Z,0.00
2018-11-07T00:40:07.051Z,0.00
2018-11-07T00:41:07.058Z,0.00
2018-11-07T00:42:58.836Z,0.00
2018-11-07T00:43:58.877Z,0.00
2018-11-07T00:45:50.562Z,0.00
2018-11-07T00:46:50.504Z,0.00
2018-11-07T00:48:42.499Z,0.00
2018-11-07T00:49:42.290Z,0.00
2018-11-07T00:51:34.425Z,0.00
2018-11-07T00:52:34.331Z,0.00
2018-11-07T00:54:26.310Z,0.00
2018-11-07T00:55:26.261Z,0.00
2018-11-07T00:57:18.092Z,0.00
2018-11-07T00:58:18.038Z,0.00
2018-11-07T01:00:09.862Z,0.00
2018-11-07T01:01:09.748Z,0.00
2018-11-07T01:03:01.751Z,0.00
2018-11-07T01:04:01.592Z,0.00
2018-11-07T01:05:53.511Z,0.00
2018-11-07T01:06:53.442Z,0.00
2018-11-07T01:08:46.239Z,0.00
2018-11-07T01:09:46.293Z,0.00
2018-11-07T01:11:38.084Z,0.00
2018-11-07T01:12:38.129Z,0.00
2018-11-07T01:14:30.795Z,0.00
2018-11-07T01:15:30.685Z,0.00
2018-11-07T01:17:23.501Z,0.00
2018-11-07T01:18:23.429Z,0.00
2018-11-07T01:20:16.236Z,0.00
2018-11-07T01:21:16.105Z,0.00
2018-11-07T01:23:09.161Z,0.00
2018-11-07T01:24:08.978Z,0.00
2018-11-07T01:26:00.888Z,0.00
2018-11-07T01:27:00.788Z,0.00
2018-11-07T01:28:52.769Z,0.00
2018-11-07T01:29:52.728Z,0.00
2018-11-07T01:31:44.762Z,0.00
2018-11-07T01:32:44.542Z,0.00
2018-11-07T01:34:36.301Z,0.00
2018-11-07T01:35:36.266Z,0.00
2018-11-07T01:37:28.092Z,0.00
2018-11-07T01:38:28.007Z,0.00
2018-11-07T01:40:19.963Z,0.00
2018-11-07T01:41:19.826Z,0.00
2018-11-07T01:43:11.729Z,0.00
2018-11-07T01:44:11.654Z,0.00
2018-11-07T01:46:03.618Z,0.00
2018-11-07T01:47:03.841Z,0.00
2018-11-07T01:48:55.878Z,0.00
2018-11-07T01:49:55.407Z,0.00
2018-11-07T01:51:47.412Z,0.00
2018-11-07T01:52:47.309Z,0.00
2018-11-07T01:54:39.454Z,0.00
2018-11-07T01:55:39.260Z,0.00
2018-11-07T01:57:31.132Z,0.00
2018-11-07T01:58:31.057Z,0.00
2018-11-07T02:00:22.925Z,0.00
2018-11-07T02:01:22.891Z,0.00
2018-11-07T02:03:14.756Z,0.00
2018-11-07T02:04:14.631Z,0.00
2018-11-07T02:06:07.536Z,0.00
2018-11-07T02:07:07.461Z,0.00
2018-11-07T02:08:59.234Z,0.00
2018-11-07T02:09:59.121Z,0.00
2018-11-07T02:11:51.095Z,0.00
2018-11-07T02:12:51.005Z,0.00
2018-11-07T02:14:42.894Z,0.00
2018-11-07T02:15:42.835Z,0.00
2018-11-07T02:17:34.729Z,0.00
2018-11-07T02:18:34.599Z,0.00
2018-11-07T02:20:26.688Z,0.00
2018-11-07T02:21:26.451Z,0.00
2018-11-07T02:23:18.669Z,0.00
2018-11-07T02:24:18.132Z,0.00
2018-11-07T02:26:10.108Z,0.00
2018-11-07T02:27:09.922Z,0.00
2018-11-07T02:29:03.019Z,0.00
2018-11-07T02:30:02.992Z,0.00
2018-11-07T02:31:54.889Z,0.00
2018-11-07T02:32:54.722Z,0.00
2018-11-07T02:34:46.652Z,0.00
2018-11-07T02:35:46.727Z,0.00
2018-11-07T02:37:38.468Z,0.00
2018-11-07T02:38:38.459Z,0.00
2018-11-07T02:40:31.338Z,0.00
2018-11-07T02:41:31.184Z,0.00
2018-11-07T02:43:23.308Z,0.00
2018-11-07T02:44:23.162Z,0.00
2018-11-07T02:46:14.888Z,0.00
2018-11-07T02:47:14.902Z,0.00
2018-11-07T02:49:06.687Z,0.00
2018-11-07T02:50:06.630Z,0.00
2018-11-07T02:51:58.573Z,0.00
2018-11-07T02:52:58.406Z,0.00
2018-11-07T02:54:50.299Z,0.00
2018-11-07T02:55:50.180Z,0.00
2018-11-07T02:57:42.160Z,0.00
2018-11-07T02:58:42.115Z,0.00
2018-11-07T03:00:33.935Z,0.00
2018-11-07T03:01:33.827Z,0.00
2018-11-07T03:03:25.892Z,0.00
2018-11-07T03:04:25.686Z,0.00
2018-11-07T03:06:18.512Z,0.00
2018-11-07T03:07:18.537Z,0.00
2018-11-07T03:09:10.531Z,0.00
2018-11-07T03:10:10.377Z,0.00
2018-11-07T03:12:03.258Z,0.00
2018-11-07T03:13:03.122Z,0.00
2018-11-07T03:14:55.062Z,0.00
2018-11-07T03:15:54.991Z,0.00
2018-11-07T03:17:46.869Z,0.00
2018-11-07T03:18:46.843Z,0.00
2018-11-07T03:20:38.874Z,0.00
2018-11-07T03:21:38.653Z,0.00
2018-11-07T03:23:31.062Z,0.00
2018-11-07T03:24:30.516Z,0.00
2018-11-07T03:26:22.461Z,0.00
2018-11-07T03:27:22.343Z,0.00
2018-11-07T03:29:14.323Z,0.00
2018-11-07T03:30:14.224Z,0.00
2018-11-07T03:32:06.735Z,0.00
2018-11-07T03:33:06.019Z,0.00
2018-11-07T03:34:58.108Z,0.00
2018-11-07T03:35:57.942Z,0.00
2018-11-07T03:37:49.997Z,0.00
2018-11-07T03:38:49.915Z,0.00
2018-11-07T03:40:41.793Z,0.00
2018-11-07T03:41:41.739Z,0.00
2018-11-07T03:43:33.840Z,0.00
2018-11-07T03:44:33.617Z,0.00
2018-11-07T03:46:25.415Z,0.00
2018-11-07T03:47:25.377Z,0.00
2018-11-07T03:49:17.364Z,0.00
2018-11-07T03:50:17.214Z,0.00
2018-11-07T03:52:09.096Z,0.00
2018-11-07T03:53:09.012Z,0.00
2018-11-07T03:55:00.873Z,0.00
2018-11-07T03:56:00.743Z,0.00
2018-11-07T03:57:52.797Z,0.00
2018-11-07T03:58:52.719Z,0.00
2018-11-07T04:00:44.687Z,0.00
2018-11-07T04:01:44.865Z,0.00
2018-11-07T04:03:36.584Z,0.00
2018-11-07T04:04:36.469Z,0.00
2018-11-07T04:06:28.248Z,0.00
2018-11-07T04:07:28.156Z,0.00
2018-11-07T04:09:20.083Z,0.00
2018-11-07T04:10:19.970Z,0.00
2018-11-07T04:12:11.914Z,0.00
2018-11-07T04:13:11.816Z,0.00
2018-11-07T04:15:03.759Z,0.00
2018-11-07T04:16:03.658Z,0.00
2018-11-07T04:17:55.661Z,0.00
2018-11-07T04:18:55.645Z,0.00
2018-11-07T04:20:47.728Z,0.00
2018-11-07T04:21:47.630Z,0.00
2018-11-07T04:23:39.734Z,0.00
2018-11-07T04:24:39.561Z,0.00
2018-11-07T04:26:31.618Z,0.00
2018-11-07T04:27:31.568Z,0.00
2018-11-07T04:29:23.453Z,0.00
2018-11-07T04:30:23.391Z,0.00
2018-11-07T04:32:15.792Z,0.00
2018-11-07T04:33:15.179Z,0.00
2018-11-07T04:35:07.051Z,0.00
2018-11-07T04:36:06.947Z,0.00
2018-11-07T04:37:58.907Z,0.00
2018-11-07T04:38:58.837Z,0.00
2018-11-07T04:40:51.733Z,0.00
2018-11-07T04:41:51.528Z,0.00
2018-11-07T04:43:43.703Z,0.00
2018-11-07T04:44:43.710Z,0.00
2018-11-07T04:46:35.469Z,0.00
2018-11-07T04:47:35.308Z,0.00
2018-11-07T04:49:28.191Z,0.00
2018-11-07T04:50:28.128Z,0.00
2018-11-07T04:52:19.935Z,0.00
2018-11-07T04:53:19.857Z,0.00
2018-11-07T04:55:12.701Z,0.00
2018-11-07T04:56:12.612Z,0.00
2018-11-07T04:58:05.462Z,0.00
2018-11-07T04:59:05.437Z,0.00
2018-11-07T05:00:57.356Z,0.00
2018-11-07T05:01:57.114Z,0.00
2018-11-07T05:03:49.165Z,0.00
2018-11-07T05:04:48.976Z,0.00
2018-11-07T05:06:40.833Z,0.00
2018-11-07T05:07:40.850Z,0.00
2018-11-07T05:09:32.778Z,0.00
2018-11-07T05:10:32.739Z,0.00
2018-11-07T05:12:24.717Z,0.00
2018-11-07T05:13:24.615Z,0.00
2018-11-07T05:15:16.754Z,0.00
2018-11-07T05:16:16.544Z,0.00
2018-11-07T05:18:08.483Z,0.00
2018-11-07T05:19:08.340Z,0.00
2018-11-07T05:21:00.439Z,0.00
2018-11-07T05:22:00.348Z,0.00
2018-11-07T05:23:53.315Z,0.00
2018-11-07T05:24:53.112Z,0.00
2018-11-07T05:26:45.052Z,0.00
2018-11-07T05:27:45.036Z,0.00
2018-11-07T05:29:36.814Z,0.00
2018-11-07T05:30:36.704Z,0.00
2018-11-07T05:32:28.599Z,0.00
2018-11-07T05:33:28.534Z,0.00
2018-11-07T05:35:20.402Z,0.00
2018-11-07T05:36:20.265Z,0.00
2018-11-07T05:38:12.283Z,0.00
2018-11-07T05:39:12.123Z,0.00
2018-11-07T05:41:04.048Z,0.00
2018-11-07T05:42:04.021Z,4.00
2018-11-07T05:43:57.032Z,4.00
2018-11-07T05:44:56.790Z,8.00
2018-11-07T05:46:48.704Z,8.00
2018-11-07T05:47:48.706Z,8.00
2018-11-07T05:49:40.573Z,8.00
2018-11-07T05:50:40.524Z,12.00
2018-11-07T05:52:32.294Z,16.00
2018-11-07T05:53:32.292Z,16.00
2018-11-07T05:55:24.182Z,24.00
2018-11-07T05:56:24.099Z,24.00
2018-11-07T05:58:16.149Z,36.00
2018-11-07T05:59:16.051Z,40.00
2018-11-07T06:01:09.074Z,52.00
2018-11-07T06:02:08.977Z,56.00
2018-11-07T06:04:00.941Z,68.00
2018-11-07T06:05:00.820Z,80.00
2018-11-07T06:06:52.760Z,92.00
2018-11-07T06:07:52.602Z,100.00
2018-11-07T06:09:45.643Z,120.00
2018-11-07T06:10:45.450Z,128.00
2018-11-07T06:12:38.307Z,152.00
2018-11-07T06:13:38.180Z,164.00
2018-11-07T06:15:31.163Z,188.00
2018-11-07T06:16:31.115Z,204.00
2018-11-07T06:18:22.911Z,232.00
2018-11-07T06:19:22.856Z,248.00
2018-11-07T06:21:14.930Z,276.00
2018-11-07T06:22:14.867Z,296.00
2018-11-07T06:24:06.852Z,332.00
2018-11-07T06:25:06.784Z,348.00
2018-11-07T06:26:58.730Z,392.00
2018-11-07T06:27:58.704Z,412.00
2018-11-07T06:29:50.563Z,456.00
2018-11-07T06:30:50.468Z,488.00
2018-11-07T06:32:43.393Z,540.00
2018-11-07T06:33:43.213Z,568.00
2018-11-07T06:35:36.162Z,628.00
2018-11-07T06:36:36.188Z,660.00
2018-11-07T06:38:28.909Z,720.00
2018-11-07T06:39:28.845Z,752.00
2018-11-07T06:41:21.765Z,816.00
2018-11-07T06:42:21.689Z,848.00
2018-11-07T06:44:13.582Z,912.00
2018-11-07T06:45:13.442Z,948.00
2018-11-07T06:47:05.191Z,1016.00
2018-11-07T06:48:05.120Z,1052.00
2018-11-07T06:49:57.048Z,1128.00
2018-11-07T06:50:56.927Z,1164.00
2018-11-07T06:52:49.053Z,1248.00
2018-11-07T06:53:48.848Z,1288.00
2018-11-07T06:55:40.888Z,1352.00
2018-11-07T06:56:40.706Z,1404.00
2018-11-07T06:58:33.714Z,1488.00
2018-11-07T06:59:33.585Z,1524.00
2018-11-07T07:01:25.828Z,1592.00
2018-11-07T07:02:25.608Z,1636.00
2018-11-07T07:04:17.690Z,1704.00
2018-11-07T07:05:17.411Z,1716.00
2018-11-07T07:07:09.313Z,1784.00
2018-11-07T07:08:09.131Z,1872.00
2018-11-07T07:10:01.432Z,1924.00
2018-11-07T07:11:01.484Z,1976.00
2018-11-07T07:12:54.235Z,2068.00
2018-11-07T07:13:54.286Z,2120.00
2018-11-07T07:15:47.025Z,2200.00
2018-11-07T07:16:46.883Z,2232.00
2018-11-07T07:18:38.898Z,2268.00
2018-11-07T07:19:38.805Z,2320.00
2018-11-07T07:21:30.722Z,2412.00
2018-11-07T07:22:30.557Z,2460.00
2018-11-07T07:24:22.558Z,2576.00
2018-11-07T07:25:22.458Z,2676.00
2018-11-07T07:27:15.349Z,3324.00
2018-11-07T07:28:15.238Z,4148.00
2018-11-07T07:30:08.179Z,5108.00
2018-11-07T07:31:08.194Z,4480.00
2018-11-07T07:33:00.062Z,4248.00
2018-11-07T07:33:59.999Z,4336.00
2018-11-07T07:35:51.838Z,4584.00
2018-11-07T07:36:51.785Z,4744.00
2018-11-07T07:38:44.639Z,6516.00
2018-11-07T07:39:44.466Z,7064.00
2018-11-07T07:41:37.433Z,7740.00
2018-11-07T07:42:37.255Z,8944.00
2018-11-07T07:44:30.117Z,9604.00
2018-11-07T07:45:30.111Z,10848.00
2018-11-07T07:47:21.903Z,10940.00
2018-11-07T07:48:21.799Z,12704.00
2018-11-07T07:50:14.705Z,14048.00
2018-11-07T07:51:14.601Z,15168.00
2018-11-07T07:53:06.448Z,14848.00
2018-11-07T07:54:06.426Z,14720.00
2018-11-07T07:55:59.462Z,15552.00
2018-11-07T07:56:59.358Z,14912.00
2018-11-07T07:58:51.201Z,16576.00
2018-11-07T07:59:51.116Z,17248.00
2018-11-07T08:01:44.206Z,17984.00
2018-11-07T08:02:43.921Z,17728.00
2018-11-07T08:04:36.811Z,18304.00
2018-11-07T08:05:36.726Z,18944.00
2018-11-07T08:07:29.597Z,19008.00
2018-11-07T08:08:29.532Z,18496.00
2018-11-07T08:10:21.502Z,20032.00
2018-11-07T08:11:21.377Z,19616.00
2018-11-07T08:13:13.252Z,19936.00
2018-11-07T08:14:13.152Z,19808.00
2018-11-07T08:16:05.212Z,20224.00
2018-11-07T08:17:05.045Z,19936.00
2018-11-07T08:18:57.006Z,20160.00
2018-11-07T08:19:56.947Z,19904.00
2018-11-07T08:21:48.906Z,19680.00
2018-11-07T08:22:48.812Z,20192.00
2018-11-07T08:24:40.795Z,20128.00
2018-11-07T08:25:40.755Z,20000.00
2018-11-07T08:27:33.645Z,20320.00
2018-11-07T08:28:33.562Z,20128.00
2018-11-07T08:30:25.692Z,20672.00
2018-11-07T08:31:25.570Z,20512.00
2018-11-07T08:33:17.384Z,20704.00
2018-11-07T08:34:17.391Z,20544.00
2018-11-07T08:36:09.331Z,20928.00
2018-11-07T08:37:09.233Z,20192.00
2018-11-07T08:39:01.175Z,20192.00
2018-11-07T08:40:00.986Z,19872.00
2018-11-07T08:41:54.090Z,19904.00
2018-11-07T08:42:53.896Z,19840.00
2018-11-07T08:44:45.748Z,19616.00
2018-11-07T08:45:45.725Z,19712.00
2018-11-07T08:47:37.647Z,19232.00
2018-11-07T08:48:37.594Z,19360.00
2018-11-07T08:50:29.527Z,19296.00
2018-11-07T08:51:29.466Z,19136.00
2018-11-07T08:53:21.316Z,19200.00
2018-11-07T08:54:21.223Z,19264.00
2018-11-07T08:56:13.084Z,19424.00
2018-11-07T08:57:12.987Z,19360.00
2018-11-07T08:59:04.937Z,19264.00
2018-11-07T09:00:04.839Z,19104.00
2018-11-07T09:01:56.785Z,18816.00
2018-11-07T09:02:56.691Z,18464.00
2018-11-07T09:04:48.637Z,18432.00
2018-11-07T09:05:48.508Z,18464.00
2018-11-07T09:07:40.656Z,18208.00
2018-11-07T09:08:40.536Z,18112.00
2018-11-07T09:10:32.425Z,18176.00
2018-11-07T09:11:32.374Z,18560.00
2018-11-07T09:13:24.200Z,18112.00
2018-11-07T09:14:24.131Z,17952.00
2018-11-07T09:16:16.269Z,17632.00
2018-11-07T09:17:16.100Z,17248.00
2018-11-07T09:19:08.155Z,16864.00
2018-11-07T09:20:08.030Z,16672.00
2018-11-07T09:22:09.943Z,16672.00
2018-11-07T09:23:09.814Z,16704.00
2018-11-07T09:25:01.632Z,16352.00
2018-11-07T09:26:01.561Z,16448.00
2018-11-07T09:27:53.433Z,16256.00
2018-11-07T09:28:53.367Z,16096.00
2018-11-07T09:30:46.299Z,15840.00
2018-11-07T09:31:46.217Z,15776.00
2018-11-07T09:33:38.085Z,15552.00
2018-11-07T09:34:38.005Z,15232.00
2018-11-07T09:36:29.945Z,15168.00
2018-11-07T09:37:29.778Z,15168.00
2018-11-07T09:39:21.721Z,14784.00
2018-11-07T09:40:21.592Z,14720.00
2018-11-07T09:42:13.418Z,14752.00
2018-11-07T09:43:13.408Z,14528.00
2018-11-07T09:45:05.209Z,13984.00
2018-11-07T09:46:05.250Z,13828.00
2018-11-07T09:47:57.171Z,13624.00
2018-11-07T09:48:57.017Z,13440.00
2018-11-07T09:50:49.033Z,13000.00
2018-11-07T09:51:48.956Z,13072.00
2018-11-07T09:53:40.847Z,12832.00
2018-11-07T09:54:40.702Z,12876.00
2018-11-07T09:56:32.589Z,12772.00
2018-11-07T09:57:32.497Z,12652.00
2018-11-07T09:59:24.726Z,11980.00
2018-11-07T10:00:24.350Z,11488.00
2018-11-07T10:02:16.132Z,10720.00
2018-11-07T10:03:16.031Z,10556.00
2018-11-07T10:05:07.886Z,10024.00
2018-11-07T10:06:07.788Z,9844.00
2018-11-07T10:07:59.665Z,8828.00
2018-11-07T10:08:59.642Z,8972.00
2018-11-07T10:10:51.555Z,8424.00
2018-11-07T10:11:51.341Z,7916.00
2018-11-07T10:13:43.288Z,6724.00
2018-11-07T10:14:43.074Z,6148.00
2018-11-07T10:16:34.988Z,6648.00
2018-11-07T10:17:34.909Z,5920.00
2018-11-07T10:19:27.879Z,6888.00
2018-11-07T10:20:27.855Z,6356.00
2018-11-07T10:22:19.775Z,5332.00
2018-11-07T10:23:19.666Z,6264.00
2018-11-07T10:25:11.606Z,6592.00
2018-11-07T10:26:11.466Z,6488.00
2018-11-07T10:28:03.758Z,6492.00
2018-11-07T10:29:03.445Z,6172.00
2018-11-07T10:30:55.152Z,4932.00
2018-11-07T10:31:55.069Z,4320.00
2018-11-07T10:33:46.936Z,3528.00
2018-11-07T10:34:46.856Z,2952.00
2018-11-07T10:36:38.738Z,2796.00
2018-11-07T10:37:38.666Z,3104.00
2018-11-07T10:39:30.510Z,3352.00
2018-11-07T10:40:30.420Z,3472.00
2018-11-07T10:42:22.343Z,3048.00
2018-11-07T10:43:22.239Z,3380.00
2018-11-07T10:45:14.145Z,3644.00
2018-11-07T10:46:14.201Z,3716.00
2018-11-07T10:48:06.567Z,3960.00
2018-11-07T10:49:06.474Z,4352.00
2018-11-07T10:50:58.375Z,4272.00
2018-11-07T10:51:58.325Z,4388.00
2018-11-07T10:53:50.382Z,4896.00
2018-11-07T10:54:50.283Z,4928.00
2018-11-07T10:56:42.112Z,4896.00
2018-11-07T10:57:41.973Z,4392.00
2018-11-07T10:59:33.815Z,4984.00
2018-11-07T11:00:33.779Z,5024.00
2018-11-07T11:02:25.768Z,4992.00
2018-11-07T11:03:25.613Z,4948.00
2018-11-07T11:05:17.646Z,4640.00
2018-11-07T11:06:17.421Z,4340.00
2018-11-07T11:08:09.224Z,4280.00
2018-11-07T11:09:09.157Z,4212.00
2018-11-07T11:11:00.943Z,4156.00
2018-11-07T11:12:00.824Z,4064.00
2018-11-07T11:13:52.755Z,3820.00
2018-11-07T11:14:52.600Z,3616.00
2018-11-07T11:16:44.696Z,3916.00
2018-11-07T11:17:44.569Z,3988.00
2018-11-07T11:19:36.608Z,3800.00
2018-11-07T11:20:36.571Z,3764.00
2018-11-07T11:22:28.326Z,3720.00
2018-11-07T11:23:28.282Z,3744.00
2018-11-07T11:25:20.247Z,3684.00
2018-11-07T11:26:20.221Z,3644.00
2018-11-07T11:28:11.961Z,3524.00
2018-11-07T11:29:11.863Z,3452.00
2018-11-07T11:31:03.822Z,3324.00
2018-11-07T11:32:03.677Z,3284.00
2018-11-07T11:33:56.231Z,3196.00
2018-11-07T11:34:55.543Z,3212.00
2018-11-07T11:36:47.358Z,2956.00
2018-11-07T11:37:47.235Z,3016.00
2018-11-07T11:39:39.300Z,2776.00
2018-11-07T11:40:39.294Z,2676.00
2018-11-07T11:42:31.344Z,2604.00
2018-11-07T11:43:31.142Z,2676.00
2018-11-07T11:45:23.003Z,2816.00
2018-11-07T11:46:22.941Z,2848.00
2018-11-07T11:48:14.992Z,2720.00
2018-11-07T11:49:15.002Z,2600.00
2018-11-07T11:51:06.856Z,2920.00
2018-11-07T11:52:06.722Z,2888.00
2018-11-07T11:53:58.685Z,3080.00
2018-11-07T11:54:58.552Z,3044.00
2018-11-07T11:56:50.537Z,3020.00
2018-11-07T11:57:50.476Z,2956.00
2018-11-07T11:59:43.651Z,3004.00
2018-11-07T12:00:43.293Z,3084.00
2018-11-07T12:02:35.241Z,3012.00
2018-11-07T12:03:35.140Z,3024.00
2018-11-07T12:05:27.276Z,3044.00
2018-11-07T12:06:27.309Z,3084.00
2018-11-07T12:08:19.233Z,2904.00
2018-11-07T12:09:19.132Z,2924.00
2018-11-07T12:11:11.172Z,2896.00
2018-11-07T12:12:11.186Z,2972.00
2018-11-07T12:14:02.893Z,2968.00
2018-11-07T12:15:03.036Z,2916.00
2018-11-07T12:16:54.724Z,2868.00
2018-11-07T12:17:54.743Z,2868.00
2018-11-07T12:19:46.641Z,2824.00
2018-11-07T12:20:46.502Z,2828.00
2018-11-07T12:22:38.574Z,2736.00
2018-11-07T12:23:38.390Z,2624.00
2018-11-07T12:25:30.386Z,2564.00
2018-11-07T12:26:30.392Z,2560.00
2018-11-07T12:28:22.325Z,2460.00
2018-11-07T12:29:22.270Z,2440.00
2018-11-07T12:31:14.171Z,2436.00
2018-11-07T12:32:14.042Z,2380.00
2018-11-07T12:34:06.976Z,2212.00
2018-11-07T12:35:06.864Z,2208.00
2018-11-07T12:36:58.830Z,2364.00
2018-11-07T12:37:58.670Z,2392.00
2018-11-07T12:39:50.623Z,2296.00
2018-11-07T12:40:50.567Z,2292.00
2018-11-07T12:42:42.631Z,2292.00
2018-11-07T12:43:42.486Z,2176.00
2018-11-07T12:45:34.335Z,1992.00
2018-11-07T12:46:34.359Z,1828.00
2018-11-07T12:48:26.066Z,1840.00
2018-11-07T12:49:25.956Z,1808.00
2018-11-07T12:51:17.792Z,1708.00
2018-11-07T12:52:17.779Z,1712.00
2018-11-07T12:54:09.494Z,1636.00
2018-11-07T12:55:09.432Z,1688.00
2018-11-07T12:57:01.513Z,1720.00
2018-11-07T12:58:01.470Z,1684.00
2018-11-07T12:59:53.183Z,1672.00
2018-11-07T13:00:53.055Z,1728.00
2018-11-07T13:02:44.933Z,1872.00
2018-11-07T13:03:45.026Z,1896.00
2018-11-07T13:05:36.839Z,1896.00
2018-11-07T13:06:36.690Z,1972.00
2018-11-07T13:08:29.353Z,1800.00
2018-11-07T13:09:29.039Z,1776.00
2018-11-07T13:11:21.099Z,1840.00
2018-11-07T13:12:21.033Z,1812.00
2018-11-07T13:14:12.954Z,1676.00
2018-11-07T13:15:12.840Z,1628.00
2018-11-07T13:17:04.772Z,1580.00
2018-11-07T13:18:04.744Z,1584.00
2018-11-07T13:19:56.563Z,1572.00
2018-11-07T13:20:56.566Z,1568.00
2018-11-07T13:22:48.522Z,1528.00
2018-11-07T13:23:48.495Z,1512.00
2018-11-07T13:25:40.505Z,1464.00
2018-11-07T13:26:40.364Z,1448.00
2018-11-07T13:28:32.512Z,1480.00
2018-11-07T13:29:32.204Z,1476.00
2018-11-07T13:31:24.109Z,1564.00
2018-11-07T13:32:24.049Z,1560.00
2018-11-07T13:34:16.123Z,1540.00
2018-11-07T13:35:15.930Z,1520.00
2018-11-07T13:37:07.953Z,1496.00
2018-11-07T13:38:08.028Z,1504.00
2018-11-07T13:39:59.565Z,1444.00
2018-11-07T13:40:59.532Z,1412.00
2018-11-07T13:42:51.466Z,1340.00
2018-11-07T13:43:51.472Z,1284.00
2018-11-07T13:45:44.328Z,1232.00
2018-11-07T13:46:44.196Z,1208.00
2018-11-07T13:48:37.113Z,1184.00
2018-11-07T13:49:37.026Z,1176.00
2018-11-07T13:51:28.944Z,1164.00
2018-11-07T13:52:28.871Z,1152.00
2018-11-07T13:54:20.754Z,1140.00
2018-11-07T13:55:20.724Z,1140.00
2018-11-07T13:57:13.686Z,1164.00
2018-11-07T13:58:13.516Z,1144.00
2018-11-07T14:00:06.436Z,1156.00
2018-11-07T14:01:06.338Z,1164.00
2018-11-07T14:02:58.377Z,1168.00
2018-11-07T14:03:58.293Z,1164.00
2018-11-07T14:05:50.359Z,1172.00
2018-11-07T14:06:50.104Z,1176.00
2018-11-07T14:08:42.342Z,1176.00
2018-11-07T14:09:42.227Z,1172.00
2018-11-07T14:11:35.121Z,1140.00
2018-11-07T14:12:35.065Z,1120.00
2018-11-07T14:14:27.057Z,1092.00
2018-11-07T14:15:26.921Z,1072.00
2018-11-07T14:17:18.860Z,1028.00
2018-11-07T14:18:18.788Z,1020.00
2018-11-07T14:20:10.704Z,1024.00
2018-11-07T14:21:10.710Z,1020.00
2018-11-07T14:23:02.675Z,1032.00
2018-11-07T14:24:02.487Z,1044.00
2018-11-07T14:25:54.386Z,1052.00
2018-11-07T14:26:54.320Z,1040.00
2018-11-07T14:28:46.257Z,1040.00
2018-11-07T14:29:46.068Z,1048.00
2018-11-07T14:31:38.186Z,1048.00
2018-11-07T14:32:37.954Z,1052.00
2018-11-07T14:34:29.861Z,1040.00
2018-11-07T14:35:29.856Z,1036.00
2018-11-07T14:37:21.719Z,1016.00
2018-11-07T14:38:21.533Z,1000.00
2018-11-07T14:40:13.558Z,972.00
2018-11-07T14:41:13.401Z,952.00
2018-11-07T14:43:06.292Z,912.00
2018-11-07T14:44:06.197Z,896.00
2018-11-07T14:45:59.136Z,852.00
2018-11-07T14:46:58.995Z,828.00
2018-11-07T14:48:51.054Z,784.00
2018-11-07T14:49:51.019Z,764.00
2018-11-07T14:51:43.888Z,716.00
2018-11-07T14:52:43.761Z,688.00
2018-11-07T14:54:36.710Z,636.00
2018-11-07T14:55:36.690Z,616.00
2018-11-07T14:57:28.486Z,564.00
2018-11-07T14:58:28.360Z,532.00
2018-11-07T15:00:20.514Z,496.00
2018-11-07T15:01:20.463Z,476.00
2018-11-07T15:03:12.348Z,440.00
2018-11-07T15:04:12.149Z,420.00
2018-11-07T15:06:04.150Z,380.00
2018-11-07T15:07:04.068Z,364.00
2018-11-07T15:08:56.076Z,328.00
2018-11-07T15:09:55.892Z,308.00
2018-11-07T15:11:48.006Z,280.00
2018-11-07T15:12:47.759Z,264.00
2018-11-07T15:14:39.576Z,236.00
2018-11-07T15:15:39.698Z,220.00
2018-11-07T15:17:31.361Z,196.00
2018-11-07T15:18:31.310Z,180.00
2018-11-07T15:20:23.088Z,160.00
2018-11-07T15:21:23.055Z,148.00
2018-11-07T15:23:14.892Z,132.00
2018-11-07T15:24:14.773Z,120.00
2018-11-07T15:26:06.769Z,104.00
2018-11-07T15:27:06.603Z,100.00
2018-11-07T15:28:58.505Z,88.00
2018-11-07T15:29:58.424Z,80.00
2018-11-07T15:31:51.456Z,60.00
2018-11-07T15:32:51.345Z,56.00
2018-11-07T15:34:43.427Z,40.00
2018-11-07T15:35:43.129Z,36.00
2018-11-07T15:37:35.112Z,28.00
2018-11-07T15:38:35.015Z,24.00
2018-11-07T15:40:26.918Z,16.00
2018-11-07T15:41:26.829Z,16.00
2018-11-07T15:43:18.810Z,12.00
2018-11-07T15:44:18.864Z,8.00
2018-11-07T15:46:10.756Z,8.00
2018-11-07T15:47:10.810Z,4.00
2018-11-07T15:49:02.736Z,4.00
2018-11-07T15:50:02.574Z,4.00
2018-11-07T15:51:54.411Z,0.00
2018-11-07T15:52:54.375Z,0.00
2018-11-07T15:54:46.260Z,4.00
2018-11-07T15:55:46.304Z,0.00
2018-11-07T15:57:38.671Z,0.00
2018-11-07T15:58:38.048Z,0.00
2018-11-07T16:00:29.953Z,0.00
2018-11-07T16:01:29.881Z,0.00
2018-11-07T16:03:21.875Z,0.00
2018-11-07T16:04:21.794Z,0.00
2018-11-07T16:06:13.830Z,0.00
2018-11-07T16:07:13.692Z,0.00
2018-11-07T16:09:05.872Z,0.00
2018-11-07T16:10:05.783Z,0.00
2018-11-07T16:11:58.715Z,0.00
2018-11-07T16:12:58.701Z,0.00
2018-11-07T16:14:50.698Z,0.00
2018-11-07T16:15:50.508Z,0.00
2018-11-07T16:17:43.484Z,0.00
2018-11-07T16:18:43.350Z,0.00
2018-11-07T16:20:35.782Z,0.00
2018-11-07T16:21:35.372Z,0.00
2018-11-07T16:23:28.038Z,0.00
2018-11-07T16:24:27.547Z,0.00
2018-11-07T16:26:19.405Z,0.00
2018-11-07T16:27:19.223Z,0.00
2018-11-07T16:29:11.075Z,0.00
2018-11-07T16:30:11.328Z,0.00
2018-11-07T16:32:03.380Z,0.00
2018-11-07T16:33:02.856Z,0.00
2018-11-07T16:34:55.037Z,0.00
2018-11-07T16:35:54.681Z,0.00
2018-11-07T16:37:46.891Z,0.00
2018-11-07T16:38:46.835Z,0.00
2018-11-07T16:40:38.822Z,0.00
2018-11-07T16:41:38.814Z,0.00
2018-11-07T16:43:30.637Z,0.00
2018-11-07T16:44:30.466Z,0.00
2018-11-07T16:46:23.408Z,0.00
2018-11-07T16:47:23.311Z,0.00
2018-11-07T16:49:15.185Z,0.00
2018-11-07T16:50:15.179Z,0.00
2018-11-07T16:52:07.178Z,0.00
2018-11-07T16:53:07.121Z,0.00
2018-11-07T16:54:58.984Z,0.00
2018-11-07T16:55:58.695Z,0.00
2018-11-07T16:57:50.680Z,0.00
2018-11-07T16:58:50.767Z,0.00
2018-11-07T17:00:43.014Z,0.00
2018-11-07T17:01:42.429Z,0.00
2018-11-07T17:03:34.327Z,0.00
2018-11-07T17:04:34.142Z,0.00
2018-11-07T17:06:27.019Z,0.00
2018-11-07T17:07:26.888Z,0.00
2018-11-07T17:09:18.897Z,0.00
2018-11-07T17:10:18.689Z,0.00
2018-11-07T17:12:10.570Z,0.00
2018-11-07T17:13:10.430Z,0.00
2018-11-07T17:15:02.416Z,0.00
2018-11-07T17:16:02.300Z,0.00
2018-11-07T17:17:54.090Z,0.00
2018-11-07T17:18:54.068Z,0.00
2018-11-07T17:20:45.957Z,0.00
2018-11-07T17:21:45.941Z,0.00
2018-11-07T17:23:38.027Z,0.00
2018-11-07T17:24:37.824Z,0.00
2018-11-07T17:26:29.615Z,0.00
2018-11-07T17:27:29.575Z,0.00
2018-11-07T17:29:21.517Z,0.00
2018-11-07T17:30:21.414Z,0.00
2018-11-07T17:32:13.400Z,0.00
2018-11-07T17:33:13.174Z,0.00
2018-11-07T17:35:05.286Z,0.00
2018-11-07T17:36:05.120Z,0.00
2018-11-07T17:37:57.041Z,0.00
2018-11-07T17:38:56.945Z,0.00
2018-11-07T17:40:48.735Z,0.00
2018-11-07T17:41:48.670Z,0.00
2018-11-07T17:43:40.874Z,0.00
2018-11-07T17:44:40.718Z,0.00
2018-11-07T17:46:32.674Z,0.00
2018-11-07T17:47:32.527Z,0.00
2018-11-07T17:49:24.697Z,0.00
2018-11-07T17:50:24.686Z,0.00
2018-11-07T17:52:16.338Z,0.00
2018-11-07T17:53:16.243Z,0.00
2018-11-07T17:55:08.228Z,0.00
2018-11-07T17:56:08.155Z,0.00
2018-11-07T17:58:00.104Z,0.00
2018-11-07T17:59:00.010Z,0.00
2018-11-07T18:00:51.739Z,0.00
2018-11-07T18:01:51.727Z,0.00
2018-11-07T18:03:43.737Z,0.00
2018-11-07T18:04:43.527Z,0.00
2018-11-07T18:06:35.498Z,0.00